Seminole, TX

2:37 AM CST en Noviembre 26, 2014 (GMT -0600)
SW Seminole | Change Station
CLOSE
Current Station
Estación meteorológica personal
Location: Seminole, TX
Altura: 3320 ft
Estaciones meteorológicas cercanas

Alt 3320 ft 32.71 °N, 102.65 °W | Updated 3 seconds ago

Despejado
Despejado
37.4 ° F
Sensación térmica 32 ° F
N
6.3
Viento Variable Viento desde Oeste
Gusts 6.3 mph

Hoy
Alta -- | Baja -- ° F
--% Posibilidad de precipitaciones
Ayer
Alta -- | Baja -- ° F
Precip. -- pul
7:30 AM 5:45 PM
Creciente, 18% visible
Presión 30.11 pul
Visibilidad 10.0 Millas
Nubes Despejado
Vientos helados 32 ° F
Punto de rocío -1 ° F
Humedad 19%
Precipitaciones 0.00 pul
Espesor de la nieve No disponible.
UV 0 de una escala de 12
Polen 5.50 de una escala de 12
Calidad del aire No disponible.
Flu Activity No disponible.
METAR KGNC 260815Z AUTO 26011KT 10SM CLR 03/M10 A3011 RMK AO2 T00321105

More Conditions Fewer Conditions

Presión 30.11 pul
Visibilidad 10.0 Millas
Nubes Despejado
Vientos helados 32 ° F
Punto de rocío -1 ° F
Humedad 19%
Precipitaciones 0.00 pul
Espesor de la nieve No disponible.
UV 0 de una escala de 12
Polen 5.50 de una escala de 12
Calidad del aire No disponible.
Flu Activity No disponible.
METAR KGNC 260815Z AUTO 26011KT 10SM CLR 03/M10 A3011 RMK AO2 T00321105

More Conditions Fewer Conditions

10-Day Weather Forecast

Almanac

Astronomía

Nov. 26, 2014 Salida Puesta
Hora real
Crepúsculo civil
Crepúsculo náutico
Crepúsculo astronómico
Luna
Horas de luz
Horas de luz
Tomorrow will be .
, % of the Moon is Illuminated

Extremos de hoy

Máximos del estado Bajos del estado

Community

WunderPhotos

Upload Photos

1,773,694 ¡fotos cargadas!

WunderBlogs® & News

Nearby

Calidad del aire

  Calidad del aire Índice AQ Contaminante
Not available.

Grosos de nieve

Estación Profundido Altura

Actividad de terremotos

Ciudad Distance Mag. Tiempo y dato
Magnitud mínima muestra es 2,5.

Temperaturas de aguas costeras

Lugar Temperatura

Estaciones meteorológicas cercanas